createdAt,value
2018-08-23T00:00:50.072Z,26.91
2018-08-23T00:01:59.482Z,26.85
2018-08-23T00:03:08.450Z,26.84
2018-08-23T00:04:18.084Z,26.82
2018-08-23T00:05:27.483Z,26.89
2018-08-23T00:06:36.888Z,26.85
2018-08-23T00:07:46.281Z,26.88
2018-08-23T00:08:55.959Z,26.85
2018-08-23T00:10:05.633Z,26.81
2018-08-23T00:11:15.337Z,26.89
2018-08-23T00:12:25.007Z,26.87
2018-08-23T00:13:34.423Z,26.85
2018-08-23T00:14:43.887Z,26.85
2018-08-23T00:15:53.299Z,26.89
2018-08-23T00:17:02.775Z,26.87
2018-08-23T00:18:12.462Z,26.82
2018-08-23T00:19:21.908Z,26.85
2018-08-23T00:20:31.321Z,26.84
2018-08-23T00:21:40.544Z,26.87
2018-08-23T00:22:49.431Z,26.88
2018-08-23T00:23:59.095Z,26.82
2018-08-23T00:25:09.024Z,26.81
2018-08-23T00:26:18.449Z,26.85
2018-08-23T00:27:27.856Z,26.85
2018-08-23T00:28:37.016Z,26.82
2018-08-23T00:29:46.175Z,26.84
2018-08-23T00:30:55.861Z,26.89
2018-08-23T00:32:05.277Z,26.85
2018-08-23T00:33:14.945Z,26.77
2018-08-23T00:34:24.094Z,26.87
2018-08-23T00:35:33.272Z,26.84
2018-08-23T00:36:42.939Z,26.88
2018-08-23T00:37:52.347Z,26.89
2018-08-23T00:39:02.013Z,26.77
2018-08-23T00:40:11.696Z,26.87
2018-08-23T00:41:21.136Z,26.82
2018-08-23T00:42:30.810Z,26.87
2018-08-23T00:43:39.948Z,26.8
2018-08-23T00:44:49.374Z,26.75
2018-08-23T00:45:58.794Z,26.8
2018-08-23T00:47:07.690Z,26.82
2018-08-23T00:48:17.360Z,26.81
2018-08-23T00:49:26.834Z,26.76
2018-08-23T00:50:35.982Z,26.75
2018-08-23T00:51:45.669Z,26.72
2018-08-23T00:52:55.062Z,26.76
2018-08-23T00:54:04.350Z,26.76
2018-08-23T00:55:14.073Z,26.76
2018-08-23T00:56:23.735Z,26.75
2018-08-23T00:57:33.136Z,26.73
2018-08-23T00:58:42.801Z,26.82
2018-08-23T00:59:52.220Z,26.81
2018-08-23T01:01:01.419Z,26.8
2018-08-23T01:02:10.589Z,26.77
2018-08-23T01:03:20.542Z,26.82
2018-08-23T01:04:30.488Z,26.87
2018-08-23T01:05:39.643Z,26.8
2018-08-23T01:06:49.658Z,26.85
2018-08-23T01:07:58.545Z,26.73
2018-08-23T01:09:08.464Z,26.8
2018-08-23T01:10:18.147Z,26.8
2018-08-23T01:11:27.799Z,26.81
2018-08-23T01:12:37.204Z,26.76
2018-08-23T01:13:47.143Z,26.81
2018-08-23T01:14:56.293Z,26.81
2018-08-23T01:16:05.692Z,26.73
2018-08-23T01:17:14.839Z,26.77
2018-08-23T01:18:24.754Z,26.76
2018-08-23T01:19:34.686Z,26.8
2018-08-23T01:20:43.833Z,26.75
2018-08-23T01:21:53.274Z,26.82
2018-08-23T01:23:02.727Z,26.8
2018-08-23T01:24:12.133Z,26.84
2018-08-23T01:25:21.548Z,26.76
2018-08-23T01:26:30.945Z,26.76
2018-08-23T01:27:40.354Z,26.8
2018-08-23T01:28:49.504Z,26.76
2018-08-23T01:29:58.926Z,26.76
2018-08-23T01:31:08.582Z,26.8
2018-08-23T01:32:18.039Z,26.75
2018-08-23T01:33:27.977Z,26.8
2018-08-23T01:34:37.661Z,26.75
2018-08-23T01:35:47.331Z,26.76
2018-08-23T01:36:56.741Z,26.76
2018-08-23T01:38:06.393Z,26.76
2018-08-23T01:39:16.132Z,26.77
2018-08-23T01:40:25.542Z,26.73
2018-08-23T01:41:35.016Z,26.8
2018-08-23T01:42:44.675Z,26.76
2018-08-23T01:43:53.828Z,26.72
2018-08-23T01:45:03.228Z,26.75
2018-08-23T01:46:12.885Z,26.75
2018-08-23T01:47:21.859Z,26.72
2018-08-23T01:48:31.511Z,26.81
2018-08-23T01:49:41.177Z,26.69
2018-08-23T01:50:50.590Z,26.72
2018-08-23T01:51:59.996Z,26.76
2018-08-23T01:53:08.883Z,26.73
2018-08-23T01:54:18.318Z,26.73
2018-08-23T01:55:27.747Z,26.72
2018-08-23T01:56:36.638Z,26.67
2018-08-23T01:57:46.329Z,26.7
2018-08-23T01:58:55.725Z,26.66
2018-08-23T02:00:05.401Z,26.67
2018-08-23T02:01:14.608Z,26.77
2018-08-23T02:02:24.334Z,26.77
2018-08-23T02:03:33.483Z,26.6
2018-08-23T02:04:42.631Z,26.66
2018-08-23T02:05:51.778Z,26.69
2018-08-23T02:07:00.922Z,26.66
2018-08-23T02:08:10.071Z,26.72
2018-08-23T02:09:19.498Z,26.7
2018-08-23T02:10:29.157Z,26.63
2018-08-23T02:11:38.815Z,26.65
2018-08-23T02:12:48.518Z,26.63
2018-08-23T02:13:57.431Z,26.66
2018-08-23T02:15:06.582Z,26.66
2018-08-23T02:16:15.801Z,26.63
2018-08-23T02:17:25.205Z,26.63
2018-08-23T02:18:34.610Z,26.62
2018-08-23T02:19:44.020Z,26.65
2018-08-23T02:20:53.436Z,26.54
2018-08-23T02:22:02.590Z,26.55
2018-08-23T02:23:11.215Z,26.6
2018-08-23T02:24:20.883Z,26.6
2018-08-23T02:25:30.826Z,26.54
2018-08-23T02:26:39.987Z,26.55
2018-08-23T02:27:49.650Z,26.62
2018-08-23T02:28:59.311Z,26.57
2018-08-23T02:30:08.472Z,26.57
2018-08-23T02:31:18.403Z,26.57
2018-08-23T02:32:27.306Z,26.57
2018-08-23T02:33:36.714Z,26.6
2018-08-23T02:34:46.132Z,26.57
2018-08-23T02:35:55.553Z,26.54
2018-08-23T02:37:05.228Z,26.57
2018-08-23T02:38:14.815Z,26.62
2018-08-23T02:39:24.781Z,26.51
2018-08-23T02:40:34.707Z,26.62
2018-08-23T02:41:44.036Z,26.6
2018-08-23T02:42:53.438Z,26.6
2018-08-23T02:44:02.585Z,26.54
2018-08-23T02:45:12.520Z,26.6
2018-08-23T02:46:21.726Z,26.57
2018-08-23T02:47:31.380Z,26.51
2018-08-23T02:48:41.105Z,26.57
2018-08-23T02:49:50.530Z,26.52
2018-08-23T02:50:59.937Z,26.5
2018-08-23T02:52:09.865Z,26.51
2018-08-23T02:53:19.312Z,26.6
2018-08-23T02:54:29.003Z,26.5
2018-08-23T02:55:38.426Z,26.58
2018-08-23T02:56:48.105Z,26.51
2018-08-23T02:57:57.785Z,26.54
2018-08-23T02:59:07.468Z,26.54
2018-08-23T03:00:16.883Z,26.52
2018-08-23T03:01:26.310Z,26.52
2018-08-23T03:02:35.784Z,26.48
2018-08-23T03:03:45.204Z,26.54
2018-08-23T03:04:54.875Z,26.48
2018-08-23T03:06:03.840Z,26.51
2018-08-23T03:07:13.498Z,26.54
2018-08-23T03:08:22.665Z,26.45
2018-08-23T03:09:32.584Z,26.48
2018-08-23T03:10:41.995Z,26.52
2018-08-23T03:11:51.686Z,26.5
2018-08-23T03:13:01.351Z,26.47
2018-08-23T03:14:10.948Z,26.54
2018-08-23T03:15:20.563Z,26.52
2018-08-23T03:16:29.986Z,26.54
2018-08-23T03:17:39.660Z,26.54
2018-08-23T03:18:48.568Z,26.54
2018-08-23T03:19:57.973Z,26.52
2018-08-23T03:21:07.376Z,26.55
2018-08-23T03:22:17.083Z,26.52
2018-08-23T03:23:26.504Z,26.51
2018-08-23T03:24:36.170Z,26.54
2018-08-23T03:25:45.328Z,26.5
2018-08-23T03:26:54.740Z,26.57
2018-08-23T03:28:03.896Z,26.52
2018-08-23T03:29:13.384Z,26.48
2018-08-23T03:30:22.809Z,26.51
2018-08-23T03:31:32.492Z,26.52
2018-08-23T03:32:41.644Z,26.51
2018-08-23T03:33:51.040Z,26.54
2018-08-23T03:35:00.706Z,26.5
2018-08-23T03:36:09.857Z,26.48
2018-08-23T03:37:19.790Z,26.51
2018-08-23T03:38:28.947Z,26.54
2018-08-23T03:39:38.099Z,26.44
2018-08-23T03:40:47.761Z,26.5
2018-08-23T03:41:57.171Z,26.54
2018-08-23T03:43:06.065Z,26.54
2018-08-23T03:44:15.736Z,26.52
2018-08-23T03:45:25.145Z,26.5
2018-08-23T03:46:34.546Z,26.54
2018-08-23T03:47:43.996Z,26.52
2018-08-23T03:48:53.471Z,26.52
2018-08-23T03:50:03.168Z,26.48
2018-08-23T03:51:12.316Z,26.52
2018-08-23T03:52:21.236Z,26.52
2018-08-23T03:53:30.464Z,26.47
2018-08-23T03:54:39.898Z,26.52
2018-08-23T03:55:49.898Z,26.48
2018-08-23T03:56:59.577Z,26.47
2018-08-23T03:58:08.980Z,26.45
2018-08-23T03:59:18.928Z,26.43
2018-08-23T04:00:28.334Z,26.43
2018-08-23T04:01:37.997Z,26.47
2018-08-23T04:02:47.400Z,26.47
2018-08-23T04:03:56.546Z,26.4
2018-08-23T04:05:05.460Z,26.43
2018-08-23T04:06:14.354Z,26.4
2018-08-23T04:07:23.770Z,26.37
2018-08-23T04:08:32.666Z,26.36
2018-08-23T04:09:42.090Z,26.36
2018-08-23T04:10:51.492Z,26.33
2018-08-23T04:12:00.649Z,26.3
2018-08-23T04:13:10.166Z,26.33
2018-08-23T04:14:19.581Z,26.32
2018-08-23T04:15:28.868Z,26.36
2018-08-23T04:16:38.390Z,26.32
2018-08-23T04:17:47.855Z,26.26
2018-08-23T04:18:57.598Z,26.3
2018-08-23T04:20:06.752Z,26.35
2018-08-23T04:21:16.164Z,26.3
2018-08-23T04:22:25.577Z,26.26
2018-08-23T04:23:35.508Z,26.3
2018-08-23T04:24:45.178Z,26.26
2018-08-23T04:25:54.611Z,26.33
2018-08-23T04:27:04.020Z,26.26
2018-08-23T04:28:12.949Z,26.29
2018-08-23T04:29:22.626Z,26.3
2018-08-23T04:30:32.041Z,26.29
2018-08-23T04:31:41.232Z,26.29
2018-08-23T04:32:50.410Z,26.26
2018-08-23T04:34:00.075Z,26.26
2018-08-23T04:35:09.232Z,26.2
2018-08-23T04:36:19.221Z,26.26
2018-08-23T04:37:28.384Z,26.33
2018-08-23T04:38:38.075Z,26.29
2018-08-23T04:39:47.242Z,26.21
2018-08-23T04:40:56.408Z,26.28
2018-08-23T04:42:06.342Z,26.26
2018-08-23T04:43:16.179Z,26.23
2018-08-23T04:44:25.724Z,26.25
2018-08-23T04:45:34.867Z,26.29
2018-08-23T04:46:43.776Z,26.33
2018-08-23T04:47:53.700Z,26.25
2018-08-23T04:49:02.607Z,26.2
2018-08-23T04:50:11.765Z,26.26
2018-08-23T04:51:21.527Z,26.28
2018-08-23T04:52:30.673Z,26.2
2018-08-23T04:53:40.342Z,26.29
2018-08-23T04:54:50.016Z,26.23
2018-08-23T04:55:59.436Z,26.23
2018-08-23T04:57:08.338Z,26.29
2018-08-23T04:58:17.765Z,26.35
2018-08-23T04:59:26.927Z,26.33
2018-08-23T05:00:36.609Z,26.3
2018-08-23T05:01:46.297Z,26.32
2018-08-23T05:02:55.717Z,26.28
2018-08-23T05:04:05.702Z,26.29
2018-08-23T05:05:15.653Z,26.35
2018-08-23T05:06:25.591Z,26.39
2018-08-23T05:07:35.000Z,26.43
2018-08-23T05:08:44.431Z,26.39
2018-08-23T05:09:53.333Z,26.43
2018-08-23T05:11:02.993Z,26.4
2018-08-23T05:12:12.659Z,26.48
2018-08-23T05:13:22.393Z,26.44
2018-08-23T05:14:31.835Z,26.48
2018-08-23T05:15:41.495Z,26.48
2018-08-23T05:16:50.383Z,26.44
2018-08-23T05:18:00.304Z,26.47
2018-08-23T05:19:09.792Z,26.48
2018-08-23T05:20:19.210Z,26.48
2018-08-23T05:21:28.628Z,26.44
2018-08-23T05:22:38.564Z,26.44
2018-08-23T05:23:48.250Z,26.44
2018-08-23T05:24:58.219Z,26.45
2018-08-23T05:26:07.411Z,26.45
2018-08-23T05:27:16.569Z,26.4
2018-08-23T05:28:26.234Z,26.47
2018-08-23T05:29:35.918Z,26.45
2018-08-23T05:30:45.079Z,26.54
2018-08-23T05:31:55.023Z,26.54
2018-08-23T05:33:04.443Z,26.5
2018-08-23T05:34:13.894Z,26.5
2018-08-23T05:35:23.302Z,26.54
2018-08-23T05:36:32.976Z,26.52
2018-08-23T05:37:42.117Z,26.52
2018-08-23T05:38:51.783Z,26.54
2018-08-23T05:40:01.568Z,26.51
2018-08-23T05:41:10.751Z,26.51
2018-08-23T05:42:19.901Z,26.5
2018-08-23T05:43:28.785Z,26.5
2018-08-23T05:44:37.953Z,26.5
2018-08-23T05:45:47.105Z,26.5
2018-08-23T05:46:56.522Z,26.58
2018-08-23T05:48:06.192Z,26.52
2018-08-23T05:49:15.339Z,26.52
2018-08-23T05:50:25.024Z,26.52
2018-08-23T05:51:34.445Z,26.58
2018-08-23T05:52:43.597Z,26.51
2018-08-23T05:53:53.001Z,26.63
2018-08-23T05:55:02.442Z,26.52
2018-08-23T05:56:11.901Z,26.54
2018-08-23T05:57:20.809Z,26.51
2018-08-23T05:58:29.984Z,26.55
2018-08-23T05:59:39.686Z,26.58
2018-08-23T06:00:49.405Z,26.6
2018-08-23T06:01:58.827Z,26.57
2018-08-23T06:03:08.493Z,26.57
2018-08-23T06:04:17.408Z,26.62
2018-08-23T06:05:27.091Z,26.62
2018-08-23T06:06:36.774Z,26.57
2018-08-23T06:07:46.178Z,26.51
2018-08-23T06:08:55.600Z,26.58
2018-08-23T06:10:04.777Z,26.63
2018-08-23T06:11:14.179Z,26.54
2018-08-23T06:12:23.853Z,26.62
2018-08-23T06:13:33.518Z,26.65
2018-08-23T06:14:42.661Z,26.6
2018-08-23T06:15:52.069Z,26.67
2018-08-23T06:17:01.576Z,26.7
2018-08-23T06:18:10.977Z,26.65
2018-08-23T06:19:20.127Z,26.65
2018-08-23T06:20:29.802Z,26.66
2018-08-23T06:21:39.207Z,26.63
2018-08-23T06:22:48.874Z,26.63
2018-08-23T06:23:58.062Z,26.63
2018-08-23T06:25:07.751Z,26.8
2018-08-23T06:26:17.156Z,26.66
2018-08-23T06:27:26.932Z,26.73
2018-08-23T06:28:36.617Z,26.7
2018-08-23T06:29:46.021Z,26.76
2018-08-23T06:30:54.913Z,26.67
2018-08-23T06:32:04.844Z,26.67
2018-08-23T06:33:15.477Z,26.7
2018-08-23T06:34:25.779Z,26.67
2018-08-23T06:35:35.620Z,26.73
2018-08-23T06:36:45.582Z,26.73
2018-08-23T06:37:54.493Z,26.72
2018-08-23T06:39:03.648Z,26.69
2018-08-23T06:40:12.563Z,26.7
2018-08-23T06:41:21.968Z,26.77
2018-08-23T06:42:31.126Z,26.73
2018-08-23T06:43:40.280Z,26.72
2018-08-23T06:44:49.686Z,26.8
2018-08-23T06:45:59.171Z,26.76
2018-08-23T06:47:09.269Z,26.77
2018-08-23T06:48:18.668Z,26.72
2018-08-23T06:49:28.105Z,26.81
2018-08-23T06:50:37.850Z,26.76
2018-08-23T06:51:47.276Z,26.77
2018-08-23T06:52:56.730Z,26.77
2018-08-23T06:54:06.422Z,26.76
2018-08-23T06:55:15.907Z,26.75
2018-08-23T06:56:24.847Z,26.77
2018-08-23T06:57:34.242Z,26.72
2018-08-23T06:58:43.451Z,26.75
2018-08-23T06:59:53.157Z,26.82
2018-08-23T07:01:02.562Z,26.77
2018-08-23T07:02:11.968Z,26.76
2018-08-23T07:03:21.952Z,26.76
2018-08-23T07:04:31.373Z,26.76
2018-08-23T07:05:40.848Z,26.85
2018-08-23T07:06:50.570Z,26.77
2018-08-23T07:08:00.367Z,26.73
2018-08-23T07:09:10.286Z,26.8
2018-08-23T07:10:19.730Z,26.81
2018-08-23T07:11:28.895Z,26.8
2018-08-23T07:12:38.645Z,26.73
2018-08-23T07:13:48.576Z,26.76
2018-08-23T07:14:58.233Z,26.81
2018-08-23T07:16:07.390Z,26.8
2018-08-23T07:17:17.469Z,26.75
2018-08-23T07:18:27.192Z,26.81
2018-08-23T07:19:36.893Z,26.82
2018-08-23T07:20:46.310Z,26.75
2018-08-23T07:21:55.455Z,26.82
2018-08-23T07:23:05.188Z,26.81
2018-08-23T07:24:14.396Z,26.72
2018-08-23T07:25:23.411Z,26.8
2018-08-23T07:26:32.845Z,26.87
2018-08-23T07:27:42.839Z,26.77
2018-08-23T07:28:52.261Z,26.88
2018-08-23T07:30:01.522Z,26.75
2018-08-23T07:31:10.844Z,26.8
2018-08-23T07:32:20.280Z,26.85
2018-08-23T07:33:30.311Z,26.75
2018-08-23T07:34:39.769Z,26.85
2018-08-23T07:35:48.944Z,26.75
2018-08-23T07:36:58.706Z,26.77
2018-08-23T07:38:08.441Z,26.82
2018-08-23T07:39:18.602Z,26.75
2018-08-23T07:40:28.709Z,26.84
2018-08-23T07:41:37.853Z,26.77
2018-08-23T07:42:47.284Z,26.82
2018-08-23T07:43:57.264Z,26.82
2018-08-23T07:45:06.957Z,26.77
2018-08-23T07:46:16.359Z,26.8
2018-08-23T07:47:26.354Z,26.87
2018-08-23T07:48:35.663Z,26.75
2018-08-23T07:49:45.680Z,26.81
2018-08-23T07:50:55.106Z,26.88
2018-08-23T07:52:04.516Z,26.84
2018-08-23T07:53:14.781Z,26.81
2018-08-23T07:54:24.018Z,26.85
2018-08-23T07:55:33.191Z,26.8
2018-08-23T07:56:42.317Z,26.81
2018-08-23T07:57:51.728Z,26.89
2018-08-23T07:59:01.131Z,26.87
2018-08-23T08:00:10.022Z,26.91
2018-08-23T08:01:19.323Z,26.88
2018-08-23T08:02:28.995Z,26.87
2018-08-23T08:03:38.150Z,26.8
2018-08-23T08:04:47.812Z,26.82
2018-08-23T08:05:57.752Z,26.85
2018-08-23T08:07:07.418Z,26.82
2018-08-23T08:08:16.845Z,26.84
2018-08-23T08:09:26.270Z,26.87
2018-08-23T08:10:35.436Z,26.87
2018-08-23T08:11:45.129Z,26.85
2018-08-23T08:12:54.556Z,26.89
2018-08-23T08:14:04.227Z,26.85
2018-08-23T08:15:14.975Z,26.84
2018-08-23T08:16:24.266Z,26.82
2018-08-23T08:17:33.429Z,26.82
2018-08-23T08:18:43.376Z,26.84
2018-08-23T08:19:53.064Z,26.82
2018-08-23T08:21:03.589Z,26.89
2018-08-23T08:22:12.596Z,26.84
2018-08-23T08:23:22.611Z,26.81
2018-08-23T08:24:32.017Z,26.89
2018-08-23T08:25:41.667Z,26.84
2018-08-23T08:26:51.595Z,26.85
2018-08-23T08:28:01.007Z,26.84
2018-08-23T08:29:10.739Z,26.82
2018-08-23T08:30:20.167Z,26.85
2018-08-23T08:31:29.841Z,26.89
2018-08-23T08:32:39.505Z,26.91
2018-08-23T08:33:48.679Z,26.84
2018-08-23T08:34:58.359Z,26.85
2018-08-23T08:36:07.813Z,26.84
2018-08-23T08:37:17.744Z,26.87
2018-08-23T08:38:27.471Z,26.8
2018-08-23T08:39:36.645Z,26.85
2018-08-23T08:40:46.341Z,26.92
2018-08-23T08:41:56.382Z,26.85
2018-08-23T08:43:06.011Z,26.88
2018-08-23T08:44:15.451Z,26.85
2018-08-23T08:45:25.112Z,26.84
2018-08-23T08:46:34.276Z,26.87
2018-08-23T08:47:43.762Z,26.91
2018-08-23T08:48:52.941Z,26.87
2018-08-23T08:50:02.651Z,26.89
2018-08-23T08:51:11.808Z,26.85
2018-08-23T08:52:20.957Z,26.84
2018-08-23T08:53:30.622Z,26.84
2018-08-23T08:54:40.577Z,26.88
2018-08-23T08:55:50.058Z,26.88
2018-08-23T08:56:59.881Z,26.81
2018-08-23T08:58:09.110Z,26.82
2018-08-23T08:59:18.783Z,26.84
2018-08-23T09:00:28.458Z,26.84
2018-08-23T09:01:37.882Z,26.92
2018-08-23T09:02:47.586Z,26.84
2018-08-23T09:03:57.142Z,26.8
2018-08-23T09:05:06.831Z,26.81
2018-08-23T09:06:16.504Z,26.94
2018-08-23T09:07:25.921Z,26.85
2018-08-23T09:08:35.345Z,26.81
2018-08-23T09:09:44.684Z,26.85
2018-08-23T09:10:54.588Z,26.82
2018-08-23T09:12:04.248Z,26.81
2018-08-23T09:13:13.921Z,26.89
2018-08-23T09:14:23.354Z,26.81
2018-08-23T09:15:32.519Z,26.85
2018-08-23T09:16:41.957Z,26.81
2018-08-23T09:17:50.843Z,26.89
2018-08-23T09:19:00.506Z,26.85
2018-08-23T09:20:09.902Z,26.91
2018-08-23T09:21:19.607Z,26.81
2018-08-23T09:22:28.819Z,26.87
2018-08-23T09:23:38.288Z,26.82
2018-08-23T09:24:48.232Z,26.89
2018-08-23T09:25:57.890Z,26.85
2018-08-23T09:27:07.611Z,26.89
2018-08-23T09:28:16.895Z,26.87
2018-08-23T09:29:25.566Z,26.92
2018-08-23T09:30:35.497Z,26.88
2018-08-23T09:31:44.716Z,26.91
2018-08-23T09:32:54.120Z,26.92
2018-08-23T09:34:03.525Z,26.85
2018-08-23T09:35:13.423Z,26.87
2018-08-23T09:36:22.712Z,26.8
2018-08-23T09:37:31.859Z,26.91
2018-08-23T09:38:41.302Z,26.92
2018-08-23T09:39:50.731Z,26.88
2018-08-23T09:41:00.391Z,26.85
2018-08-23T09:42:09.540Z,26.91
2018-08-23T09:43:18.429Z,26.91
2018-08-23T09:44:27.833Z,26.94
2018-08-23T09:45:37.548Z,26.91
2018-08-23T09:46:47.218Z,26.89
2018-08-23T09:47:57.144Z,26.85
2018-08-23T09:49:06.076Z,26.88
2018-08-23T09:50:16.317Z,26.92
2018-08-23T09:51:26.423Z,26.94
2018-08-23T09:52:35.851Z,26.91
2018-08-23T09:53:45.257Z,26.92
2018-08-23T09:54:54.573Z,26.85
2018-08-23T09:56:03.987Z,26.91
2018-08-23T09:57:13.135Z,26.97
2018-08-23T09:58:22.565Z,26.94
2018-08-23T09:59:31.509Z,26.92
2018-08-23T10:00:41.158Z,26.95
2018-08-23T10:01:51.072Z,26.89
2018-08-23T10:02:59.970Z,26.89
2018-08-23T10:04:09.954Z,26.88
2018-08-23T10:05:20.046Z,26.95
2018-08-23T10:06:28.933Z,26.95
2018-08-23T10:07:38.612Z,26.92
2018-08-23T10:08:48.015Z,26.97
2018-08-23T10:09:57.436Z,26.91
2018-08-23T10:11:07.361Z,26.95
2018-08-23T10:12:17.068Z,26.97
2018-08-23T10:13:26.216Z,26.94
2018-08-23T10:14:35.361Z,26.95
2018-08-23T10:15:44.767Z,26.97
2018-08-23T10:16:54.247Z,26.92
2018-08-23T10:18:03.649Z,26.94
2018-08-23T10:19:13.382Z,26.88
2018-08-23T10:20:22.533Z,26.94
2018-08-23T10:21:31.701Z,26.99
2018-08-23T10:22:40.875Z,26.97
2018-08-23T10:23:50.302Z,26.99
2018-08-23T10:24:59.446Z,26.89
2018-08-23T10:26:08.870Z,26.94
2018-08-23T10:27:18.322Z,26.95
2018-08-23T10:28:28.538Z,26.94
2018-08-23T10:29:37.949Z,26.92
2018-08-23T10:30:47.356Z,26.99
2018-08-23T10:31:56.549Z,26.97
2018-08-23T10:33:06.561Z,26.97
2018-08-23T10:34:16.280Z,26.95
2018-08-23T10:35:25.181Z,26.97
2018-08-23T10:36:34.854Z,26.91
2018-08-23T10:37:44.589Z,26.99
2018-08-23T10:38:54.024Z,26.95
2018-08-23T10:40:03.737Z,26.95
2018-08-23T10:41:12.909Z,26.94
2018-08-23T10:42:22.356Z,26.95
2018-08-23T10:43:31.793Z,26.97
2018-08-23T10:44:40.483Z,27
2018-08-23T10:45:50.716Z,27.04
2018-08-23T10:47:00.436Z,26.95
2018-08-23T10:48:10.158Z,26.94
2018-08-23T10:49:19.154Z,27
2018-08-23T10:50:28.352Z,26.99
2018-08-23T10:51:37.835Z,26.97
2018-08-23T10:52:47.858Z,26.95
2018-08-23T10:53:57.287Z,26.97
2018-08-23T10:55:06.713Z,26.95
2018-08-23T10:56:16.150Z,26.97
2018-08-23T10:57:25.572Z,26.95
2018-08-23T10:58:35.245Z,26.99
2018-08-23T10:59:44.931Z,26.99
2018-08-23T11:00:54.664Z,27.07
2018-08-23T11:02:04.140Z,26.95
2018-08-23T11:03:13.553Z,26.91
2018-08-23T11:04:23.247Z,26.97
2018-08-23T11:05:32.724Z,26.97
2018-08-23T11:06:42.398Z,27
2018-08-23T11:07:52.125Z,26.94
2018-08-23T11:09:01.309Z,26.97
2018-08-23T11:10:11.006Z,27
2018-08-23T11:11:20.174Z,27.02
2018-08-23T11:12:29.340Z,27
2018-08-23T11:13:38.495Z,27
2018-08-23T11:14:47.958Z,26.94
2018-08-23T11:15:57.668Z,26.95
2018-08-23T11:17:07.933Z,26.94
2018-08-23T11:18:17.779Z,26.95
2018-08-23T11:19:26.955Z,26.95
2018-08-23T11:20:36.365Z,26.97
2018-08-23T11:21:45.788Z,27
2018-08-23T11:22:55.447Z,26.99
2018-08-23T11:24:05.211Z,26.94
2018-08-23T11:25:14.635Z,26.94
2018-08-23T11:26:23.577Z,26.95
2018-08-23T11:27:33.278Z,27.09
2018-08-23T11:28:42.694Z,27.09
2018-08-23T11:29:52.520Z,26.99
2018-08-23T11:31:02.424Z,26.94
2018-08-23T11:32:11.565Z,27.02
2018-08-23T11:33:21.228Z,26.94
2018-08-23T11:34:30.621Z,27.03
2018-08-23T11:35:39.778Z,27.02
2018-08-23T11:36:48.712Z,27.02
2018-08-23T11:37:58.682Z,27.03
2018-08-23T11:39:08.384Z,26.97
2018-08-23T11:40:17.849Z,27
2018-08-23T11:41:27.064Z,26.97
2018-08-23T11:42:36.567Z,26.97
2018-08-23T11:43:46.329Z,27.03
2018-08-23T11:44:55.759Z,26.92
2018-08-23T11:46:04.957Z,26.95
2018-08-23T11:47:14.417Z,27.03
2018-08-23T11:48:23.600Z,27.02
2018-08-23T11:49:33.678Z,26.95
2018-08-23T11:50:43.363Z,26.94
2018-08-23T11:51:52.797Z,26.95
2018-08-23T11:53:02.294Z,27
2018-08-23T11:54:11.505Z,26.99
2018-08-23T11:55:21.455Z,27.02
2018-08-23T11:56:30.359Z,26.95
2018-08-23T11:57:39.783Z,26.97
2018-08-23T11:58:49.494Z,26.99
2018-08-23T11:59:58.111Z,26.97
2018-08-23T12:01:07.800Z,26.99
2018-08-23T12:02:17.215Z,26.99
2018-08-23T12:03:26.640Z,26.99
2018-08-23T12:04:36.352Z,27.02
2018-08-23T12:05:45.767Z,26.95
2018-08-23T12:06:55.502Z,26.99
2018-08-23T12:08:05.435Z,26.99
2018-08-23T12:09:14.885Z,27.03
2018-08-23T12:10:24.334Z,27
2018-08-23T12:11:33.804Z,27.03
2018-08-23T12:12:42.770Z,26.99
2018-08-23T12:13:52.442Z,27.06
2018-08-23T12:15:02.170Z,27
2018-08-23T12:16:11.928Z,27.02
2018-08-23T12:17:21.340Z,26.99
2018-08-23T12:18:30.744Z,27.03
2018-08-23T12:19:39.710Z,27
2018-08-23T12:20:49.110Z,26.99
2018-08-23T12:21:58.779Z,27.03
2018-08-23T12:23:07.940Z,26.99
2018-08-23T12:24:17.368Z,26.97
2018-08-23T12:25:26.831Z,27.07
2018-08-23T12:26:36.031Z,26.97
2018-08-23T12:27:45.531Z,27.02
2018-08-23T12:28:54.947Z,27.02
2018-08-23T12:30:04.674Z,27.07
2018-08-23T12:31:13.581Z,27.02
2018-08-23T12:32:22.756Z,27.07
2018-08-23T12:33:31.925Z,27
2018-08-23T12:34:41.862Z,27.06
2018-08-23T12:35:51.301Z,26.97
2018-08-23T12:37:00.481Z,27
2018-08-23T12:38:09.968Z,27.04
2018-08-23T12:39:19.404Z,27.02
2018-08-23T12:40:28.965Z,26.94
2018-08-23T12:41:37.889Z,26.97
2018-08-23T12:42:47.640Z,27
2018-08-23T12:43:56.822Z,27.04
2018-08-23T12:45:06.279Z,27
2018-08-23T12:46:16.229Z,26.99
2018-08-23T12:47:25.488Z,27
2018-08-23T12:48:34.899Z,27.04
2018-08-23T12:49:44.250Z,27.02
2018-08-23T12:50:54.190Z,27
2018-08-23T12:52:03.614Z,26.99
2018-08-23T12:53:13.187Z,27.02
2018-08-23T12:54:23.264Z,27.06
2018-08-23T12:55:32.660Z,27
2018-08-23T12:56:42.063Z,27.12
2018-08-23T12:57:51.225Z,27.09
2018-08-23T12:59:00.655Z,27.04
2018-08-23T13:00:10.067Z,27.04
2018-08-23T13:01:20.001Z,27.07
2018-08-23T13:02:30.213Z,27.12
2018-08-23T13:03:40.029Z,27.07
2018-08-23T13:04:49.499Z,27.06
2018-08-23T13:05:58.177Z,27.02
2018-08-23T13:07:07.706Z,27.1
2018-08-23T13:08:16.682Z,27.07
2018-08-23T13:09:26.933Z,27.03
2018-08-23T13:10:36.350Z,27.02
2018-08-23T13:11:45.765Z,27.06
2018-08-23T13:12:55.178Z,27.07
2018-08-23T13:14:04.611Z,27.09
2018-08-23T13:15:14.042Z,27.03
2018-08-23T13:16:24.006Z,27.06
2018-08-23T13:17:33.816Z,27.12
2018-08-23T13:18:43.886Z,27.12
2018-08-23T13:19:53.377Z,27.09
2018-08-23T13:21:02.839Z,27.09
2018-08-23T13:22:12.240Z,27.09
2018-08-23T13:23:21.966Z,27.12
2018-08-23T13:24:31.401Z,27.07
2018-08-23T13:25:40.548Z,27.1
2018-08-23T13:26:49.725Z,27.12
2018-08-23T13:27:59.147Z,27.07
2018-08-23T13:29:08.827Z,27.07
2018-08-23T13:30:18.857Z,27.1
2018-08-23T13:31:28.591Z,27.17
2018-08-23T13:32:37.833Z,27.07
2018-08-23T13:33:47.237Z,27.1
2018-08-23T13:34:56.905Z,27.09
2018-08-23T13:36:06.437Z,27.04
2018-08-23T13:37:16.618Z,27.12
2018-08-23T13:38:26.387Z,27.13
2018-08-23T13:39:35.831Z,27.13
2018-08-23T13:40:45.250Z,27.14
2018-08-23T13:41:54.259Z,27.14
2018-08-23T13:43:03.897Z,27.19
2018-08-23T13:44:13.040Z,27.13
2018-08-23T13:45:22.783Z,27.12
2018-08-23T13:46:32.298Z,27.18
2018-08-23T13:47:41.469Z,27.13
2018-08-23T13:48:51.203Z,27.17
2018-08-23T13:50:00.600Z,27.13
2018-08-23T13:51:10.544Z,27.13
2018-08-23T13:52:19.746Z,27.12
2018-08-23T13:53:28.653Z,27.1
2018-08-23T13:54:38.459Z,27.17
2018-08-23T13:55:48.470Z,27.18
2018-08-23T13:56:57.683Z,27.18
2018-08-23T13:58:06.589Z,27.14
2018-08-23T13:59:16.525Z,27.19
2018-08-23T14:00:25.941Z,27.17
2018-08-23T14:01:35.898Z,27.19
2018-08-23T14:02:44.872Z,27.17
2018-08-23T14:03:54.415Z,27.17
2018-08-23T14:05:03.905Z,27.13
2018-08-23T14:06:13.213Z,27.13
2018-08-23T14:07:22.977Z,27.12
2018-08-23T14:08:32.017Z,27.19
2018-08-23T14:09:41.188Z,27.14
2018-08-23T14:10:50.595Z,27.19
2018-08-23T14:12:00.007Z,27.12
2018-08-23T14:13:09.168Z,27.19
2018-08-23T14:14:18.841Z,27.27
2018-08-23T14:15:28.259Z,27.28
2018-08-23T14:16:37.663Z,27.17
2018-08-23T14:17:47.065Z,27.19
2018-08-23T14:18:56.803Z,27.21
2018-08-23T14:20:05.969Z,27.21
2018-08-23T14:21:15.637Z,27.25
2018-08-23T14:22:24.814Z,27.28
2018-08-23T14:23:34.254Z,27.21
2018-08-23T14:24:43.401Z,27.31
2018-08-23T14:25:52.809Z,27.21
2018-08-23T14:27:01.984Z,27.24
2018-08-23T14:28:11.787Z,27.24
2018-08-23T14:29:20.931Z,27.19
2018-08-23T14:30:29.826Z,27.22
2018-08-23T14:31:39.055Z,27.25
2018-08-23T14:32:47.956Z,27.25
2018-08-23T14:33:57.647Z,27.28
2018-08-23T14:35:06.813Z,27.29
2018-08-23T14:36:15.982Z,27.22
2018-08-23T14:37:25.395Z,27.31
2018-08-23T14:38:35.138Z,27.21
2018-08-23T14:39:44.647Z,27.25
2018-08-23T14:40:53.803Z,27.25
2018-08-23T14:42:03.202Z,27.28
2018-08-23T14:43:12.396Z,27.28
2018-08-23T14:44:22.485Z,27.25
2018-08-23T14:45:32.466Z,27.24
2018-08-23T14:46:42.767Z,27.21
2018-08-23T14:47:51.950Z,27.31
2018-08-23T14:49:01.128Z,27.25
2018-08-23T14:50:10.814Z,27.24
2018-08-23T14:51:20.222Z,27.25
2018-08-23T14:52:29.654Z,27.28
2018-08-23T14:53:39.068Z,27.31
2018-08-23T14:54:48.751Z,27.25
2018-08-23T14:55:58.413Z,27.25
2018-08-23T14:57:07.882Z,27.28
2018-08-23T14:58:17.976Z,27.21
2018-08-23T14:59:27.161Z,27.27